createdAt,value
2022-09-28T00:01:20.445Z,99106.22
2022-09-28T00:04:34.987Z,99103.22
2022-09-28T00:11:41.983Z,99093.06
2022-09-28T00:14:57.016Z,99092.28
2022-09-28T00:17:58.833Z,99078.87
2022-09-28T00:21:23.000Z,99070.94
2022-09-28T00:24:31.581Z,99069.69
2022-09-28T00:27:40.006Z,99070.81
2022-09-28T00:30:48.632Z,99068.94
2022-09-28T00:34:40.989Z,99074.62
2022-09-28T00:37:49.002Z,99068.94
2022-09-28T00:40:57.671Z,99076.22
2022-09-28T00:44:31.006Z,99081.88
2022-09-28T00:47:54.003Z,99088.84
2022-09-28T00:50:57.013Z,99083.12
2022-09-28T00:54:13.994Z,99084.25
2022-09-28T00:57:16.943Z,99088.22
2022-09-28T01:00:32.094Z,99092.94
2022-09-28T01:03:40.710Z,99079.37
2022-09-28T01:06:56.002Z,99090.41
2022-09-28T01:10:03.991Z,99095.44
2022-09-28T01:13:20.016Z,99086.16
2022-09-28T01:16:41.763Z,99079.37
2022-09-28T01:20:30.972Z,99089.75
2022-09-28T01:24:05.003Z,99094.16
2022-09-28T01:27:13.428Z,99093.19
2022-09-28T01:30:28.996Z,99088.63
2022-09-28T01:34:16.996Z,99093.81
2022-09-28T01:37:31.643Z,99090.69
2022-09-28T01:40:47.056Z,99092.69
2022-09-28T01:43:55.055Z,99098.53
2022-09-28T01:47:11.002Z,99104.69
2022-09-28T01:50:29.008Z,99120.00
2022-09-28T01:53:43.412Z,99109.94
2022-09-28T01:57:17.012Z,99112.91
2022-09-28T02:00:33.004Z,99125.72
2022-09-28T02:03:44.475Z,99115.00
2022-09-28T02:07:00.980Z,99122.09
2022-09-28T02:10:33.026Z,99112.16
2022-09-28T02:14:04.997Z,99111.31
2022-09-28T02:17:07.594Z,99112.56
2022-09-28T02:20:22.985Z,99107.66
2022-09-28T02:23:28.440Z,99121.88
2022-09-28T02:26:48.994Z,99122.50
2022-09-28T02:30:04.026Z,99121.72
2022-09-28T02:33:35.997Z,99124.41
2022-09-28T02:36:46.501Z,99137.69
2022-09-28T02:40:01.020Z,99130.72
2022-09-28T02:43:25.007Z,99136.75
2022-09-28T02:46:43.385Z,99138.97
2022-09-28T02:50:31.013Z,99126.03
2022-09-28T02:54:03.938Z,99134.22
2022-09-28T02:57:40.011Z,99127.91
2022-09-28T03:01:18.054Z,99135.81
2022-09-28T03:04:48.029Z,99136.47
2022-09-28T03:07:58.544Z,99142.63
2022-09-28T03:11:36.990Z,99141.81
2022-09-28T03:14:52.027Z,99144.81
2022-09-28T03:18:07.013Z,99152.09
2022-09-28T03:21:23.008Z,99153.50
2022-09-28T03:24:31.530Z,99140.22
2022-09-28T03:27:46.006Z,99137.09
2022-09-28T03:31:01.057Z,99173.06
2022-09-28T03:34:22.988Z,99161.19
2022-09-28T03:37:38.021Z,99166.56
2022-09-28T03:41:07.036Z,99164.84
2022-09-28T03:44:09.203Z,99163.59
2022-09-28T03:47:25.014Z,99152.09
2022-09-28T03:50:33.530Z,99156.03
2022-09-28T03:53:43.000Z,99160.47
2022-09-28T03:56:57.999Z,99163.44
2022-09-28T03:59:59.909Z,99160.94
2022-09-28T04:03:14.998Z,99169.31
2022-09-28T04:06:16.747Z,99156.84
2022-09-28T04:09:30.988Z,99167.75
2022-09-28T04:12:32.743Z,99167.41
2022-09-28T04:15:49.010Z,99157.16
2022-09-28T04:18:57.011Z,99153.53
2022-09-28T04:22:05.465Z,99168.22
2022-09-28T04:25:20.036Z,99148.63
2022-09-28T04:28:28.577Z,99158.91
2022-09-28T04:31:53.063Z,99149.59
2022-09-28T04:35:18.007Z,99149.88
2022-09-28T04:38:30.849Z,99152.44
2022-09-28T04:41:55.986Z,99148.63
2022-09-28T04:45:11.030Z,99153.22
2022-09-28T04:48:12.806Z,99146.75
2022-09-28T04:51:28.000Z,99151.97
2022-09-28T04:54:43.028Z,99154.47
2022-09-28T04:57:51.539Z,99151.19
2022-09-28T05:01:09.046Z,99145.97
2022-09-28T05:04:18.809Z,99150.22
2022-09-28T05:07:35.979Z,99153.84
2022-09-28T05:10:45.885Z,99155.59
2022-09-28T05:14:01.013Z,99161.91
2022-09-28T05:17:09.003Z,99161.44
2022-09-28T05:20:17.537Z,99166.94
2022-09-28T05:23:34.305Z,99173.56
2022-09-28T05:26:43.007Z,99174.69
2022-09-28T05:29:51.527Z,99172.16
2022-09-28T05:33:05.993Z,99173.09
2022-09-28T05:36:14.202Z,99174.03
2022-09-28T05:40:10.024Z,99176.09
2022-09-28T05:43:18.241Z,99174.66
2022-09-28T05:46:33.025Z,99174.84
2022-09-28T05:49:34.864Z,99172.78
2022-09-28T05:52:50.009Z,99167.88
2022-09-28T05:55:59.324Z,99163.31
2022-09-28T06:02:38.087Z,99169.94
2022-09-28T06:05:46.623Z,99162.37
2022-09-28T06:09:00.984Z,99159.53
2022-09-28T06:12:09.495Z,99158.91
2022-09-28T06:15:24.012Z,99150.84
2022-09-28T06:18:33.013Z,99164.25
2022-09-28T06:21:41.523Z,99164.72
2022-09-28T06:24:50.018Z,99163.59
2022-09-28T06:27:59.460Z,99159.28
2022-09-28T06:31:14.079Z,99161.16
2022-09-28T06:34:21.978Z,99158.75
2022-09-28T06:37:30.589Z,99161.25
2022-09-28T06:40:40.055Z,99166.59
2022-09-28T06:43:48.875Z,99172.56
2022-09-28T06:47:04.026Z,99178.41
2022-09-28T06:50:12.996Z,99186.75
2022-09-28T06:53:21.519Z,99182.28
2022-09-28T06:56:32.945Z,99183.56
2022-09-28T06:59:47.993Z,99185.44
2022-09-28T07:03:02.989Z,99189.50
2022-09-28T07:06:18.986Z,99189.16
2022-09-28T07:09:32.607Z,99185.72
2022-09-28T07:12:42.523Z,99179.00
2022-09-28T07:16:04.036Z,99180.59
2022-09-28T07:19:12.637Z,99187.22
2022-09-28T07:22:40.347Z,99198.56
2022-09-28T07:25:45.550Z,99190.91
2022-09-28T07:29:00.006Z,99185.47
2022-09-28T07:32:15.199Z,99182.72
2022-09-28T07:35:17.598Z,99179.50
2022-09-28T07:38:31.982Z,99188.47
2022-09-28T07:41:40.005Z,99179.56
2022-09-28T07:44:55.054Z,99180.78
2022-09-28T07:51:20.470Z,99175.72
2022-09-28T07:54:35.013Z,99170.09
2022-09-28T07:57:43.623Z,99174.88
2022-09-28T08:00:58.071Z,99182.06
2022-09-28T08:04:05.997Z,99181.19
2022-09-28T08:07:23.808Z,99178.47
2022-09-28T08:10:40.194Z,99187.28
2022-09-28T08:13:57.003Z,99203.44
2022-09-28T08:16:58.766Z,99192.47
2022-09-28T08:20:15.046Z,99181.41
2022-09-28T08:23:23.005Z,99175.12
2022-09-28T08:26:38.051Z,99159.53
2022-09-28T08:29:46.018Z,99154.63
2022-09-28T08:33:01.618Z,99156.16
2022-09-28T08:36:17.014Z,99150.06
2022-09-28T08:39:26.008Z,99149.97
2022-09-28T08:42:41.485Z,99154.22
2022-09-28T08:45:50.049Z,99157.84
2022-09-28T08:49:31.603Z,99170.59
2022-09-28T08:52:47.040Z,99171.41
2022-09-28T08:55:57.196Z,99165.59
2022-09-28T08:59:11.024Z,99173.88
2022-09-28T09:02:34.785Z,99170.75
2022-09-28T09:06:18.578Z,99166.25
2022-09-28T09:09:42.995Z,99162.31
2022-09-28T09:13:04.028Z,99162.44
2022-09-28T09:16:43.034Z,99166.00
2022-09-28T09:20:08.108Z,99162.63
2022-09-28T09:23:43.876Z,99155.69
2022-09-28T09:26:52.050Z,99150.69
2022-09-28T09:30:10.229Z,99156.94
2022-09-28T09:33:53.111Z,99157.00
2022-09-28T09:37:12.066Z,99150.34
2022-09-28T09:41:11.047Z,99149.00
2022-09-28T09:44:40.038Z,99145.41
2022-09-28T09:47:50.748Z,99142.38
2022-09-28T09:51:10.038Z,99152.41
2022-09-28T09:54:59.182Z,99147.37
2022-09-28T09:58:13.182Z,99154.53
2022-09-28T10:01:39.123Z,99150.22
2022-09-28T10:04:45.124Z,99150.09
2022-09-28T10:08:15.020Z,99145.31
2022-09-28T10:11:35.027Z,99146.19
2022-09-28T10:14:43.606Z,99148.56
2022-09-28T10:17:53.199Z,99157.09
2022-09-28T10:21:02.350Z,99152.97
2022-09-28T10:24:11.027Z,99157.31
2022-09-28T10:27:49.486Z,99150.81
2022-09-28T10:30:57.644Z,99144.00
2022-09-28T10:34:06.010Z,99153.59
2022-09-28T10:37:24.029Z,99152.75
2022-09-28T10:40:46.737Z,99143.81
2022-09-28T10:44:08.023Z,99144.72
2022-09-28T10:47:26.027Z,99144.97
2022-09-28T10:50:34.520Z,99155.75
2022-09-28T10:53:46.027Z,99145.31
2022-09-28T10:56:56.201Z,99153.50
2022-09-28T11:00:13.025Z,99146.91
2022-09-28T11:03:28.088Z,99137.75
2022-09-28T11:06:51.101Z,99139.19
2022-09-28T11:10:01.461Z,99134.84
2022-09-28T11:13:15.174Z,99134.34
2022-09-28T11:16:33.031Z,99125.34
2022-09-28T11:19:41.049Z,99112.94
2022-09-28T11:22:57.032Z,99124.50
2022-09-28T11:26:08.992Z,99115.16
2022-09-28T11:29:32.028Z,99118.66
2022-09-28T11:32:43.796Z,99120.69
2022-09-28T11:36:22.042Z,99115.66
2022-09-28T11:40:21.073Z,99113.91
2022-09-28T11:43:56.458Z,99107.22
2022-09-28T11:47:30.035Z,99107.44
2022-09-28T11:50:57.036Z,99108.34
2022-09-28T11:54:25.168Z,99111.41
2022-09-28T12:09:27.049Z,99085.28
2022-09-28T12:12:58.039Z,99078.78
2022-09-28T12:20:31.042Z,99078.94
2022-09-28T12:23:50.055Z,99069.31
2022-09-28T12:26:56.619Z,99076.19
2022-09-28T12:30:18.070Z,99060.00
2022-09-28T12:33:33.049Z,99050.91
2022-09-28T12:36:41.042Z,99051.94
2022-09-28T12:40:07.364Z,99052.00
2022-09-28T12:43:32.946Z,99041.56
2022-09-28T12:47:23.072Z,99032.06
2022-09-28T12:50:59.296Z,99035.44
2022-09-28T12:54:15.085Z,99028.53
2022-09-28T12:57:36.135Z,99032.97
2022-09-28T13:01:20.119Z,99027.84
2022-09-28T13:04:37.909Z,99038.97
2022-09-28T13:08:00.111Z,99029.19
2022-09-28T13:11:18.070Z,99033.44
2022-09-28T13:15:03.791Z,99027.84
2022-09-28T13:18:24.035Z,99025.37
2022-09-28T13:22:32.050Z,99031.44
2022-09-28T13:26:09.094Z,99023.50
2022-09-28T13:29:27.425Z,99022.06
2022-09-28T13:32:39.077Z,99008.91
2022-09-28T13:35:47.611Z,99022.38
2022-09-28T13:39:05.119Z,99031.72
2022-09-28T13:42:35.057Z,99034.56
2022-09-28T13:45:52.213Z,99010.59
2022-09-28T13:49:38.053Z,99037.41
2022-09-28T13:53:07.065Z,99029.22
2022-09-28T13:56:36.087Z,99018.63
2022-09-28T14:00:08.058Z,99022.19
2022-09-28T14:03:26.086Z,99023.44
2022-09-28T14:06:34.453Z,99029.00
2022-09-28T14:10:27.062Z,99024.75
2022-09-28T14:13:48.071Z,99016.94
2022-09-28T14:16:59.908Z,99024.16
2022-09-28T14:20:21.090Z,99026.88
2022-09-28T14:24:11.061Z,99027.31
2022-09-28T14:27:34.769Z,99020.19
2022-09-28T14:30:49.080Z,99012.09
2022-09-28T14:34:03.065Z,99016.44
2022-09-28T14:37:27.268Z,99001.72
2022-09-28T14:41:11.080Z,98995.63
2022-09-28T14:44:26.078Z,99000.97
2022-09-28T14:47:45.065Z,99001.72
2022-09-28T14:54:58.075Z,99008.38
2022-09-28T14:58:23.077Z,98995.91
2022-09-28T15:05:25.236Z,98995.91
2022-09-28T15:08:40.303Z,98992.31
2022-09-28T15:11:49.083Z,98987.78
2022-09-28T15:15:07.123Z,98996.19
2022-09-28T15:18:37.086Z,98994.56
2022-09-28T15:21:52.068Z,98989.94
2022-09-28T15:25:09.077Z,98987.47
2022-09-28T15:28:19.990Z,98990.91
2022-09-28T15:31:32.086Z,98980.34
2022-09-28T15:34:54.061Z,98964.37
2022-09-28T15:37:55.977Z,98978.31
2022-09-28T15:41:13.059Z,98974.06
2022-09-28T15:44:41.125Z,98972.34
2022-09-28T15:47:43.088Z,98974.63
2022-09-28T15:54:34.072Z,98979.63
2022-09-28T15:57:43.184Z,98981.63
2022-09-28T16:00:54.062Z,98975.34
2022-09-28T16:05:08.071Z,98981.47
2022-09-28T16:08:38.711Z,98977.44
2022-09-28T16:11:53.059Z,98984.63
2022-09-28T16:15:12.152Z,98982.97
2022-09-28T16:18:20.088Z,98986.31
2022-09-28T16:21:45.066Z,98982.34
2022-09-28T16:25:05.102Z,98968.88
2022-09-28T16:28:06.916Z,98974.38
2022-09-28T16:35:17.103Z,98977.31
2022-09-28T16:38:25.703Z,98977.59
2022-09-28T16:41:40.100Z,98980.22
2022-09-28T16:44:41.914Z,98984.41
2022-09-28T16:47:58.109Z,98989.03
2022-09-28T16:51:13.109Z,98979.72
2022-09-28T16:54:21.167Z,98992.31
2022-09-28T16:57:36.091Z,98989.25
2022-09-28T17:00:51.083Z,98986.53
2022-09-28T17:04:06.134Z,98989.94
2022-09-28T17:07:28.134Z,98998.41
2022-09-28T17:11:09.836Z,98993.38
2022-09-28T17:14:16.559Z,99004.50
2022-09-28T17:17:25.082Z,99005.22
2022-09-28T17:20:35.959Z,98993.63
2022-09-28T17:23:44.092Z,98998.94
2022-09-28T17:26:52.803Z,98990.75
2022-09-28T17:30:07.082Z,98996.00
2022-09-28T17:33:15.749Z,98989.16
2022-09-28T17:36:30.082Z,98992.72
2022-09-28T17:39:45.067Z,98991.59
2022-09-28T17:42:54.111Z,98996.03
2022-09-28T17:46:09.117Z,99006.31
2022-09-28T17:49:25.077Z,98998.78
2022-09-28T17:52:26.856Z,98996.44
2022-09-28T17:55:45.117Z,99009.41
2022-09-28T17:58:47.183Z,99006.62
2022-09-28T18:02:02.682Z,98996.75
2022-09-28T18:05:18.255Z,99008.06
2022-09-28T18:08:28.472Z,99013.94
2022-09-28T18:11:47.086Z,99025.56
2022-09-28T18:14:55.706Z,99020.22
2022-09-28T18:18:04.094Z,99022.97
2022-09-28T18:21:19.105Z,99018.03
2022-09-28T18:24:34.072Z,99023.56
2022-09-28T18:27:42.108Z,99018.75
2022-09-28T18:30:57.107Z,99023.50
2022-09-28T18:34:12.141Z,99024.78
2022-09-28T18:37:21.089Z,99025.81
2022-09-28T18:40:29.669Z,99029.19
2022-09-28T18:43:47.407Z,99025.16
2022-09-28T18:46:56.111Z,99031.22
2022-09-28T18:50:05.144Z,99027.63
2022-09-28T18:53:20.117Z,99035.59
2022-09-28T18:56:22.332Z,99030.56
2022-09-28T18:59:37.125Z,99039.28
2022-09-28T19:02:39.324Z,99036.91
2022-09-28T19:05:54.148Z,99045.12
2022-09-28T19:09:09.088Z,99042.00
2022-09-28T19:12:14.417Z,99035.25
2022-09-28T19:15:29.161Z,99037.62
2022-09-28T19:18:46.104Z,99039.72
2022-09-28T19:21:49.439Z,99039.94
2022-09-28T19:25:04.299Z,99037.16
2022-09-28T19:28:14.103Z,99034.81
2022-09-28T19:31:23.459Z,99047.13
2022-09-28T19:34:38.144Z,99040.41
2022-09-28T19:37:39.950Z,99034.56
2022-09-28T19:40:55.157Z,99036.81
2022-09-28T19:44:05.282Z,99032.19
2022-09-28T19:47:15.126Z,99025.13
2022-09-28T19:50:30.109Z,99022.00
2022-09-28T19:53:38.607Z,99028.06
2022-09-28T19:56:53.119Z,99032.75
2022-09-28T20:00:08.085Z,99024.22
2022-09-28T20:03:24.108Z,99024.69
2022-09-28T20:06:26.561Z,99024.22
2022-09-28T20:09:41.117Z,99022.34
2022-09-28T20:12:58.102Z,99010.34
2022-09-28T20:16:07.138Z,99013.47
2022-09-28T20:19:22.106Z,99014.59
2022-09-28T20:22:30.627Z,99005.63
2022-09-28T20:25:39.092Z,99008.66
2022-09-28T20:28:54.081Z,99011.00
2022-09-28T20:32:03.240Z,99012.13
2022-09-28T20:35:12.096Z,99002.47
2022-09-28T20:38:20.673Z,99006.31
2022-09-28T20:41:30.113Z,99007.84
2022-09-28T20:44:45.167Z,99006.31
2022-09-28T20:47:53.630Z,98997.78
2022-09-28T20:51:10.096Z,98992.41
2022-09-28T20:54:25.090Z,98998.22
2022-09-28T20:57:27.630Z,98987.78
2022-09-28T21:00:42.088Z,98986.53
2022-09-28T21:03:52.141Z,98981.41
2022-09-28T21:07:07.090Z,98981.41
2022-09-28T21:10:15.698Z,98974.34
2022-09-28T21:16:45.090Z,98980.47
2022-09-28T21:19:53.644Z,98974.00
2022-09-28T21:23:02.127Z,98970.50
2022-09-28T21:26:16.655Z,98963.59
2022-09-28T21:29:25.100Z,98968.28
2022-09-28T21:32:40.103Z,98969.50
2022-09-28T21:35:48.626Z,98968.06
2022-09-28T21:38:57.102Z,98967.28
2022-09-28T21:42:05.747Z,98969.97
2022-09-28T21:45:20.123Z,98965.28
2022-09-28T21:48:23.900Z,98963.03
2022-09-28T21:51:46.084Z,98972.66
2022-09-28T21:54:47.805Z,98966.03
2022-09-28T21:58:02.116Z,98972.19
2022-09-28T22:05:09.103Z,98980.97
2022-09-28T22:08:26.477Z,98982.16
2022-09-28T22:11:36.091Z,98983.66
2022-09-28T22:14:44.609Z,98978.28
2022-09-28T22:18:07.828Z,98979.72
2022-09-28T22:21:15.612Z,98976.69
2022-09-28T22:24:30.097Z,98977.13
2022-09-28T22:27:32.371Z,98973.66
2022-09-28T22:30:50.146Z,98970.66
2022-09-28T22:33:59.557Z,98962.56
2022-09-28T22:37:14.125Z,98956.63
2022-09-28T22:40:15.998Z,98959.75
2022-09-28T22:43:32.136Z,98957.41
2022-09-28T22:46:33.925Z,98962.00
2022-09-28T22:49:49.112Z,98950.44
2022-09-28T22:52:50.850Z,98951.69
2022-09-28T22:56:07.150Z,98954.38
2022-09-28T23:03:19.132Z,98963.69
2022-09-28T23:06:41.119Z,98957.50
2022-09-28T23:09:56.099Z,98952.03
2022-09-28T23:13:04.834Z,98949.00
2022-09-28T23:16:19.183Z,98952.13
2022-09-28T23:19:27.722Z,98962.22
2022-09-28T23:22:36.094Z,98960.00
2022-09-28T23:25:51.134Z,98973.09
2022-09-28T23:28:53.675Z,98968.94
2022-09-28T23:32:09.132Z,98961.69
2022-09-28T23:35:24.129Z,98946.66
2022-09-28T23:38:40.144Z,98947.91
2022-09-28T23:41:55.134Z,98951.69
2022-09-28T23:45:03.844Z,98950.13
2022-09-28T23:48:12.125Z,98955.81
2022-09-28T23:51:20.793Z,98960.53
2022-09-28T23:54:29.136Z,98960.66
2022-09-28T23:57:39.966Z,98963.69
